KTEW

Mason Jewett Field Airport

Mason, Michigan, USA
METAR KTEW 231022Z AUTO 22007KT 180V240 10SM BKN100 OVC120 04/00 A2949 RMK AO2
Observed Flight Rules
Jan-23 @ 10:22 UTC (2 hours ago) Visual Flight Rules
Wind Visibility Clouds
220° at 7 knots 10 miles
  • Broken at 10,000' AGL
  • Overcast at 12,000' AGL
Temperatures Readings
Current 4°C / 39°F
Dewpoint 0°C / 32°F
Humidity 75%
Altimeter 29.49" Hg
Pressure 999 hPa
Elevation 280
METAR KTEW 231022Z AUTO 22007KT 180V240 10SM BKN100 OVC120 04/00 A2949 RMK AO2
Observed Flight Rules
Jan-23 @ 10:22 UTC
(2 hours ago)
VFR
Wind Visibility
220° at 7 knots 10 miles
Clouds
  • Broken at 10,000' AGL
  • Overcast at 12,000' AGL
Temperature Dewpoint
4°C / 39°F 0°C / 32°F
Humidity Altimeter Pressure
75% 29.49" Hg 999 hPa